createdAt,value
2023-03-03T00:02:19.216Z,88.57
2023-03-03T00:07:23.189Z,89.39
2023-03-03T00:12:28.062Z,90.67
2023-03-03T00:17:31.922Z,89.77
2023-03-03T00:22:37.130Z,91.52
2023-03-03T00:27:38.680Z,92.02
2023-03-03T00:32:50.294Z,91.14
2023-03-03T00:37:55.582Z,91.59
2023-03-03T00:43:00.208Z,89.61
2023-03-03T00:48:17.589Z,89.47
2023-03-03T00:53:20.959Z,90.11
2023-03-03T00:58:23.558Z,89.19
2023-03-03T01:03:26.814Z,89.62
2023-03-03T01:08:29.007Z,89.24
2023-03-03T01:13:32.214Z,89.49
2023-03-03T01:18:35.233Z,90.09
2023-03-03T01:23:36.961Z,90.90
2023-03-03T01:28:38.548Z,91.15
2023-03-03T01:33:40.181Z,90.60
2023-03-03T01:38:41.799Z,89.77
2023-03-03T01:43:46.689Z,90.53
2023-03-03T01:48:48.423Z,89.91
2023-03-03T01:53:52.768Z,89.95
2023-03-03T01:59:01.070Z,87.55
2023-03-03T02:04:02.699Z,86.33
2023-03-03T02:09:33.763Z,85.37
2023-03-03T02:14:35.473Z,86.73
2023-03-03T02:19:51.248Z,89.08
2023-03-03T02:24:57.603Z,87.36
2023-03-03T02:30:10.015Z,87.52
2023-03-03T02:35:34.006Z,87.83
2023-03-03T02:40:40.978Z,89.85
2023-03-03T02:45:44.360Z,90.72
2023-03-03T02:50:46.079Z,88.96
2023-03-03T02:55:48.082Z,90.58
2023-03-03T03:00:50.289Z,89.63
2023-03-03T03:05:57.872Z,88.34
2023-03-03T03:11:00.249Z,86.04
2023-03-03T03:16:02.793Z,85.37
2023-03-03T03:21:12.641Z,90.13
2023-03-03T03:26:15.578Z,91.83
2023-03-03T03:31:19.584Z,90.15
2023-03-03T03:36:21.818Z,86.73
2023-03-03T03:41:23.844Z,88.50
2023-03-03T03:46:25.504Z,88.32
2023-03-03T03:51:27.478Z,88.70
2023-03-03T03:56:29.162Z,90.59
2023-03-03T04:01:33.754Z,89.59
2023-03-03T04:06:35.742Z,88.83
2023-03-03T04:11:39.080Z,87.91
2023-03-03T04:16:42.672Z,90.15
2023-03-03T04:21:45.310Z,91.18
2023-03-03T04:26:47.009Z,89.83
2023-03-03T04:31:51.462Z,89.82
2023-03-03T04:36:54.109Z,88.48
2023-03-03T04:41:56.205Z,85.91
2023-03-03T04:46:58.367Z,88.72
2023-03-03T04:52:00.280Z,87.69
2023-03-03T04:57:02.254Z,87.41
2023-03-03T05:02:05.345Z,86.31
2023-03-03T05:07:06.996Z,88.56
2023-03-03T05:12:08.749Z,89.01
2023-03-03T05:17:10.331Z,89.91
2023-03-03T05:22:11.932Z,88.01
2023-03-03T05:27:13.553Z,88.22
2023-03-03T05:32:15.564Z,88.01
2023-03-03T05:37:17.220Z,88.32
2023-03-03T05:42:19.178Z,87.90
2023-03-03T05:47:20.786Z,90.69
2023-03-03T05:52:24.230Z,90.80
2023-03-03T05:57:25.864Z,92.19
2023-03-03T06:02:27.580Z,91.57
2023-03-03T06:07:29.184Z,91.45
2023-03-03T06:12:30.977Z,90.18
2023-03-03T06:17:32.534Z,90.56
2023-03-03T06:22:34.268Z,89.30
2023-03-03T06:27:35.889Z,89.74
2023-03-03T06:32:37.480Z,91.37
2023-03-03T06:37:39.164Z,91.00
2023-03-03T06:42:40.849Z,91.05
2023-03-03T06:47:42.523Z,91.13
2023-03-03T06:52:44.360Z,90.60
2023-03-03T06:57:45.935Z,90.74
2023-03-03T07:02:50.443Z,89.67
2023-03-03T07:07:52.006Z,88.22
2023-03-03T07:12:54.777Z,89.99
2023-03-03T07:18:00.202Z,90.81
2023-03-03T07:23:21.657Z,91.38
2023-03-03T07:28:25.750Z,90.30
2023-03-03T07:33:34.356Z,92.38
2023-03-03T07:38:42.885Z,89.61
2023-03-03T07:43:55.001Z,90.21
2023-03-03T07:48:58.356Z,88.86
2023-03-03T07:54:18.444Z,88.14
2023-03-03T07:59:25.333Z,87.82
2023-03-03T08:04:41.718Z,88.92
2023-03-03T08:09:44.970Z,89.56
2023-03-03T08:14:47.088Z,90.25
2023-03-03T08:19:50.057Z,87.58
2023-03-03T08:24:51.655Z,86.84
2023-03-03T08:29:53.281Z,87.90
2023-03-03T08:34:55.085Z,86.46
2023-03-03T08:39:56.810Z,85.88
2023-03-03T08:44:58.413Z,86.74
2023-03-03T08:49:59.993Z,86.46
2023-03-03T08:55:01.602Z,85.94
2023-03-03T09:00:03.383Z,86.76
2023-03-03T09:05:05.919Z,87.44
2023-03-03T09:10:08.170Z,86.99
2023-03-03T09:15:15.208Z,87.16
2023-03-03T09:20:29.020Z,90.21
2023-03-03T09:25:32.162Z,87.95
2023-03-03T09:30:38.619Z,89.07
2023-03-03T09:35:41.792Z,87.09
2023-03-03T09:40:45.991Z,85.99
2023-03-03T09:45:59.749Z,86.05
2023-03-03T09:51:08.347Z,85.58
2023-03-03T09:56:21.365Z,85.48
2023-03-03T10:02:00.649Z,83.97
2023-03-03T10:07:39.017Z,83.33
2023-03-03T10:13:12.875Z,83.64
2023-03-03T10:18:32.904Z,83.63
2023-03-03T10:23:56.220Z,83.83
2023-03-03T10:29:31.159Z,85.14
2023-03-03T10:34:41.495Z,82.32
2023-03-03T10:39:46.174Z,84.02
2023-03-03T10:45:21.224Z,83.07
2023-03-03T10:50:46.335Z,82.98
2023-03-03T10:56:11.048Z,82.44
2023-03-03T11:01:48.071Z,81.66
2023-03-03T11:06:55.721Z,81.75
2023-03-03T11:12:22.792Z,81.54
2023-03-03T11:17:39.376Z,82.64
2023-03-03T11:22:55.023Z,82.10
2023-03-03T11:28:17.172Z,81.00
2023-03-03T11:33:37.218Z,81.52
2023-03-03T11:38:57.422Z,81.81
2023-03-03T11:44:45.706Z,81.10
2023-03-03T11:50:00.412Z,81.08
2023-03-03T11:55:19.171Z,82.17
2023-03-03T12:00:42.525Z,81.99
2023-03-03T12:05:53.163Z,82.19
2023-03-03T12:11:25.963Z,82.33
2023-03-03T12:16:52.795Z,80.45
2023-03-03T12:22:06.959Z,79.18
2023-03-03T12:27:17.247Z,79.02
2023-03-03T12:32:28.049Z,79.24
2023-03-03T12:38:07.814Z,78.35
2023-03-03T12:43:35.354Z,77.63
2023-03-03T12:48:37.047Z,76.44
2023-03-03T12:53:38.566Z,75.38
2023-03-03T12:58:48.741Z,75.63
2023-03-03T13:04:08.872Z,76.55
2023-03-03T13:09:37.308Z,75.13
2023-03-03T13:14:54.190Z,74.42
2023-03-03T13:20:00.976Z,75.43
2023-03-03T13:25:27.049Z,75.21
2023-03-03T13:30:33.644Z,77.32
2023-03-03T13:35:41.795Z,76.17
2023-03-03T13:40:46.611Z,75.67
2023-03-03T13:46:26.167Z,74.33
2023-03-03T13:51:43.052Z,76.07
2023-03-03T13:57:02.838Z,75.92
2023-03-03T14:02:29.727Z,75.95
2023-03-03T14:07:59.961Z,75.74
2023-03-03T14:13:13.254Z,76.03
2023-03-03T14:18:29.331Z,75.45
2023-03-03T14:23:50.621Z,75.51
2023-03-03T14:29:05.110Z,75.20
2023-03-03T14:34:09.484Z,74.45
2023-03-03T14:39:38.808Z,75.36
2023-03-03T14:44:46.361Z,75.25
2023-03-03T14:49:48.265Z,76.69
2023-03-03T14:54:56.050Z,76.28
2023-03-03T15:00:01.195Z,74.67
2023-03-03T15:05:16.799Z,74.46
2023-03-03T15:10:31.302Z,74.96
2023-03-03T15:15:32.928Z,75.76
2023-03-03T15:21:04.050Z,75.33
2023-03-03T15:26:19.629Z,74.39
2023-03-03T15:31:51.762Z,74.48
2023-03-03T15:36:57.235Z,74.30
2023-03-03T15:42:15.800Z,75.38
2023-03-03T15:47:46.608Z,74.16
2023-03-03T15:52:53.085Z,74.68
2023-03-03T15:58:42.737Z,74.44
2023-03-03T16:03:48.460Z,74.88
2023-03-03T16:08:52.869Z,74.23
2023-03-03T16:14:01.738Z,75.42
2023-03-03T16:19:14.066Z,74.61
2023-03-03T16:24:41.083Z,74.42
2023-03-03T16:29:57.715Z,74.07
2023-03-03T16:35:18.105Z,74.13
2023-03-03T16:40:23.991Z,75.17
2023-03-03T16:45:34.638Z,75.34
2023-03-03T16:51:02.477Z,76.51
2023-03-03T16:56:06.723Z,76.09
2023-03-03T17:01:25.344Z,76.23
2023-03-03T17:06:35.787Z,75.68
2023-03-03T17:12:00.640Z,76.30
2023-03-03T17:17:12.162Z,75.85
2023-03-03T17:22:21.198Z,76.25
2023-03-03T17:27:40.904Z,76.66
2023-03-03T17:33:17.210Z,76.85
2023-03-03T17:38:55.412Z,76.36
2023-03-03T17:44:02.724Z,76.59
2023-03-03T17:49:25.825Z,76.91
2023-03-03T17:54:33.141Z,77.02
2023-03-03T18:00:01.079Z,76.65
2023-03-03T18:05:18.944Z,76.54
2023-03-03T18:10:39.039Z,77.14
2023-03-03T18:16:11.290Z,77.59
2023-03-03T18:21:22.349Z,78.19
2023-03-03T18:26:33.756Z,78.56
2023-03-03T18:31:52.535Z,78.77
2023-03-03T18:36:56.165Z,78.09
2023-03-03T18:42:05.804Z,79.28
2023-03-03T18:47:07.636Z,78.64
2023-03-03T18:52:38.672Z,79.92
2023-03-03T18:57:40.292Z,79.45
2023-03-03T19:02:52.122Z,79.15
2023-03-03T19:07:58.212Z,79.92
2023-03-03T19:13:00.082Z,79.30
2023-03-03T19:18:03.707Z,79.00
2023-03-03T19:23:07.406Z,79.46
2023-03-03T19:28:11.742Z,79.05
2023-03-03T19:33:23.414Z,80.04
2023-03-03T19:38:56.415Z,79.57
2023-03-03T19:44:42.862Z,80.13
2023-03-03T19:49:57.704Z,80.49
2023-03-03T19:55:02.242Z,79.43
2023-03-03T20:00:32.662Z,80.23
2023-03-03T20:05:46.209Z,79.76
2023-03-03T20:10:48.663Z,80.09
2023-03-03T20:16:03.477Z,79.82
2023-03-03T20:21:20.315Z,78.99
2023-03-03T20:26:27.232Z,78.98
2023-03-03T20:32:06.745Z,79.43
2023-03-03T20:37:38.717Z,79.52
2023-03-03T20:42:52.844Z,80.17
2023-03-03T20:48:32.304Z,80.15
2023-03-03T20:53:39.511Z,80.42
2023-03-03T20:58:56.360Z,80.36
2023-03-03T21:04:19.880Z,80.27
2023-03-03T21:09:26.727Z,80.01
2023-03-03T21:14:35.751Z,79.95
2023-03-03T21:19:37.449Z,80.37
2023-03-03T21:24:56.609Z,80.83
2023-03-03T21:30:17.164Z,79.88
2023-03-03T21:35:23.471Z,79.92
2023-03-03T21:40:29.442Z,79.56
2023-03-03T21:45:31.061Z,80.20
2023-03-03T21:50:35.541Z,79.44
2023-03-03T21:55:37.117Z,79.71
2023-03-03T22:00:39.783Z,80.13
2023-03-03T22:05:41.727Z,79.56
2023-03-03T22:10:43.368Z,79.86
2023-03-03T22:15:44.957Z,80.28
2023-03-03T22:20:48.073Z,79.35
2023-03-03T22:25:49.832Z,78.76
2023-03-03T22:30:51.481Z,78.41
2023-03-03T22:35:53.154Z,78.59
2023-03-03T22:40:55.719Z,79.23
2023-03-03T22:45:57.777Z,78.93
2023-03-03T22:50:59.457Z,79.23
2023-03-03T22:56:01.309Z,78.35
2023-03-03T23:01:04.720Z,78.28
2023-03-03T23:06:06.616Z,79.00
2023-03-03T23:11:08.267Z,77.93
2023-03-03T23:16:09.936Z,77.78
2023-03-03T23:21:11.622Z,78.23
2023-03-03T23:26:13.274Z,77.73
2023-03-03T23:31:14.914Z,78.98
2023-03-03T23:36:16.606Z,78.01
2023-03-03T23:41:18.214Z,77.56
2023-03-03T23:46:19.780Z,77.19
2023-03-03T23:51:21.378Z,77.89
2023-03-03T23:56:23.004Z,77.77
